Time;durP1;ratioP1;P1;durP2;ratioP2;P2;SDS_P1;SDS_P2;PMS_P1;PMS_P2;Temp;Humidity;BMP_temperature;BMP_pressure;BME280_temperature;BME280_humidity;BME280_pressure;Samples;Min_cycle;Max_cycle;Signal;HPM_P1;HPM_P2
2023/02/18 00:01:16;;;;;;;0.60;0.60;;;11.10;99.90;;;;;;5045794;28;20998;-67
2023/02/18 00:03:43;;;;;;;0.40;0.30;;;11.10;99.90;;;;;;5030129;28;20809;-67
2023/02/18 00:06:17;;;;;;;0.60;0.60;;;11.10;99.90;;;;;;5026968;28;21062;-68
2023/02/18 00:08:45;;;;;;;0.37;0.37;;;11.10;99.90;;;;;;5034008;28;20954;-68
2023/02/18 00:11:13;;;;;;;1.13;0.47;;;11.10;99.90;;;;;;5044632;28;20781;-67
2023/02/18 00:13:39;;;;;;;0.40;0.30;;;11.00;99.90;;;;;;5033812;28;20631;-68
2023/02/18 00:16:09;;;;;;;0.43;0.43;;;11.00;99.90;;;;;;5046143;28;20642;-67
2023/02/18 00:18:36;;;;;;;0.60;0.60;;;11.00;99.90;;;;;;5047755;28;20633;-67
2023/02/18 00:21:04;;;;;;;0.50;0.50;;;10.90;99.90;;;;;;5046627;28;21419;-67
2023/02/18 00:23:33;;;;;;;0.43;0.43;;;10.90;99.90;;;;;;5047108;28;20619;-67
2023/02/18 00:26:01;;;;;;;0.87;0.47;;;10.90;99.90;;;;;;5046510;28;20657;-67
2023/02/18 00:28:28;;;;;;;1.60;0.70;;;10.80;99.90;;;;;;5045878;28;20610;-67
2023/02/18 00:30:55;;;;;;;2.83;1.23;;;10.80;99.90;;;;;;5037455;28;20670;-68
2023/02/18 00:33:22;;;;;;;1.77;1.40;;;10.80;99.90;;;;;;5027475;28;20616;-67
2023/02/18 00:35:49;;;;;;;0.40;0.30;;;10.80;99.90;;;;;;5028913;28;20887;-67
2023/02/18 00:38:16;;;;;;;0.40;0.30;;;10.80;99.90;;;;;;5029914;28;20627;-67
2023/02/18 00:40:44;;;;;;;0.60;0.60;;;10.80;99.90;;;;;;5057873;28;20655;-67
2023/02/18 00:43:11;;;;;;;0.83;0.53;;;10.80;99.90;;;;;;5070423;28;20613;-67
2023/02/18 00:45:37;;;;;;;0.50;0.50;;;10.80;99.90;;;;;;5040447;28;21561;-67
2023/02/18 00:48:04;;;;;;;2.00;0.63;;;10.80;99.90;;;;;;5036202;28;20627;-68
2023/02/18 00:50:31;;;;;;;0.40;0.40;;;10.80;99.90;;;;;;5033730;28;20655;-67
2023/02/18 00:52:58;;;;;;;0.67;0.50;;;10.80;99.90;;;;;;5041117;28;20981;-67
2023/02/18 00:55:25;;;;;;;0.40;0.30;;;10.80;99.90;;;;;;5044506;28;21036;-68
2023/02/18 00:57:53;;;;;;;0.40;0.37;;;10.80;99.90;;;;;;5036794;28;20641;-67
2023/02/18 01:00:20;;;;;;;1.03;0.70;;;10.80;99.90;;;;;;5029285;28;20619;-67
2023/02/18 01:02:47;;;;;;;0.40;0.30;;;10.80;99.90;;;;;;5028928;28;21238;-67
2023/02/18 01:05:16;;;;;;;1.13;0.50;;;10.70;99.90;;;;;;5029487;28;21200;-67
2023/02/18 01:07:43;;;;;;;1.03;0.70;;;10.70;99.90;;;;;;5029580;28;20631;-69
2023/02/18 01:10:11;;;;;;;0.87;0.50;;;10.80;99.90;;;;;;5027991;28;20719;-67
2023/02/18 01:12:37;;;;;;;0.60;0.30;;;10.80;99.90;;;;;;5029370;28;21218;-67
2023/02/18 01:15:07;;;;;;;0.77;0.70;;;10.80;99.90;;;;;;5028301;28;20682;-68
2023/02/18 01:17:34;;;;;;;0.30;0.30;;;10.90;99.90;;;;;;5030832;28;21091;-67
2023/02/18 01:20:00;;;;;;;0.40;0.30;;;10.80;99.90;;;;;;5069140;28;20633;-67
2023/02/18 01:22:27;;;;;;;0.40;0.40;;;10.80;99.90;;;;;;5044919;28;21032;-68
2023/02/18 01:24:54;;;;;;;0.50;0.43;;;10.80;99.90;;;;;;5048845;28;21243;-67
2023/02/18 01:27:21;;;;;;;0.30;0.30;;;10.80;99.90;;;;;;5048707;28;20661;-67
2023/02/18 01:29:48;;;;;;;1.23;0.60;;;10.80;99.90;;;;;;5048726;28;20634;-67
2023/02/18 01:32:16;;;;;;;0.40;0.40;;;10.80;99.90;;;;;;5047007;28;20758;-68
2023/02/18 01:34:43;;;;;;;1.53;1.47;;;10.80;99.90;;;;;;5028860;28;20665;-67
2023/02/18 01:37:10;;;;;;;0.40;0.40;;;10.70;99.90;;;;;;5028150;28;20666;-68
2023/02/18 01:39:37;;;;;;;0.93;0.47;;;10.70;99.90;;;;;;5038036;28;20683;-65
2023/02/18 01:42:04;;;;;;;0.50;0.50;;;10.70;99.90;;;;;;5050019;28;21059;-67
2023/02/18 01:44:33;;;;;;;0.47;0.47;;;10.60;99.90;;;;;;5049169;28;20721;-67
2023/02/18 01:47:00;;;;;;;0.60;0.40;;;10.60;99.90;;;;;;5042649;28;20682;-67
2023/02/18 01:49:32;;;;;;;0.50;0.50;;;10.60;99.90;;;;;;5037948;28;20622;-67
2023/02/18 01:52:02;;;;;;;0.57;0.57;;;10.60;99.90;;;;;;5048262;28;20657;-67
2023/02/18 01:54:33;;;;;;;0.60;0.50;;;10.70;99.90;;;;;;5036217;28;20619;-67
2023/02/18 01:57:03;;;;;;;0.40;0.40;;;10.60;99.90;;;;;;5047853;28;20761;-67
2023/02/18 01:59:34;;;;;;;0.50;0.50;;;10.60;99.90;;;;;;5050327;28;20648;-67
2023/02/18 02:02:01;;;;;;;0.77;0.30;;;10.70;99.90;;;;;;5045889;28;20654;-68
2023/02/18 02:04:29;;;;;;;0.43;0.43;;;10.70;99.90;;;;;;5028004;28;21154;-67
2023/02/18 02:06:56;;;;;;;0.70;0.50;;;10.60;99.90;;;;;;5028128;28;20667;-67
2023/02/18 02:09:26;;;;;;;0.80;0.80;;;10.60;99.90;;;;;;5036853;28;20626;-67
2023/02/18 02:12:15;;;;;;;0.87;0.57;;;10.60;99.90;;;;;;5046529;28;20741;-67
2023/02/18 02:14:53;;;;;;;1.03;0.57;;;10.50;99.90;;;;;;5035994;28;20639;-68
2023/02/18 02:17:29;;;;;;;0.87;0.50;;;10.50;99.80;;;;;;5028816;28;20766;-67
2023/02/18 02:20:32;;;;;;;0.70;0.70;;;10.50;99.90;;;;;;5027703;28;21203;-67
2023/02/18 02:23:29;;;;;;;2.00;0.80;;;10.40;99.90;;;;;;5027676;28;21260;-68
2023/02/18 02:26:29;;;;;;;0.80;0.80;;;10.30;99.90;;;;;;5047291;28;20656;-68
2023/02/18 02:29:32;;;;;;;0.70;0.70;;;10.30;99.90;;;;;;5027768;28;20754;-67
2023/02/18 02:32:32;;;;;;;1.23;1.07;;;10.20;99.90;;;;;;5037748;28;20652;-67
2023/02/18 02:35:03;;;;;;;0.80;0.70;;;10.30;99.90;;;;;;5027946;28;20658;-67
2023/02/18 02:37:41;;;;;;;0.40;0.40;;;10.30;99.90;;;;;;5027260;28;21173;-67
2023/02/18 02:40:20;;;;;;;1.33;1.23;;;10.30;99.90;;;;;;5050880;28;21147;-67
2023/02/18 02:42:58;;;;;;;1.93;1.00;;;10.20;99.90;;;;;;5029369;28;20742;-67
2023/02/18 02:45:36;;;;;;;0.90;0.80;;;10.20;99.90;;;;;;5047712;28;20662;-67
2023/02/18 02:48:12;;;;;;;0.63;0.63;;;10.30;99.90;;;;;;5034522;28;20619;-67
2023/02/18 02:50:46;;;;;;;1.03;1.00;;;10.30;99.90;;;;;;5047602;28;21286;-67
2023/02/18 02:53:24;;;;;;;0.60;0.60;;;10.30;99.90;;;;;;5037357;28;20630;-67
2023/02/18 02:55:53;;;;;;;0.93;0.93;;;10.30;99.90;;;;;;5030609;28;20662;-67
2023/02/18 02:58:21;;;;;;;0.87;0.83;;;10.20;99.90;;;;;;5035491;28;20631;-67
2023/02/18 03:01:14;;;;;;;1.10;0.90;;;10.30;99.90;;;;;;5047262;28;21175;-68
2023/02/18 03:04:24;;;;;;;0.80;0.80;;;10.30;99.90;;;;;;5047671;28;20630;-68
2023/02/18 03:07:17;;;;;;;1.47;0.70;;;10.30;99.90;;;;;;5035087;28;20650;-67
2023/02/18 03:09:59;;;;;;;1.40;1.30;;;10.40;99.90;;;;;;5030841;28;21160;-66
2023/02/18 03:12:33;;;;;;;0.97;0.50;;;10.40;99.90;;;;;;5029737;28;20650;-67
2023/02/18 03:15:07;;;;;;;0.40;0.30;;;10.40;99.90;;;;;;5027667;28;20647;-69
2023/02/18 03:17:38;;;;;;;1.43;0.53;;;10.40;99.90;;;;;;5028913;28;20611;-67
2023/02/18 03:20:10;;;;;;;0.53;0.53;;;10.30;99.90;;;;;;5044914;28;20759;-67
2023/02/18 03:22:44;;;;;;;0.80;0.73;;;10.20;99.90;;;;;;5031256;28;20623;-67
2023/02/18 03:25:12;;;;;;;1.23;1.00;;;10.20;99.90;;;;;;5027262;28;20947;-67
2023/02/18 03:27:45;;;;;;;0.50;0.40;;;10.20;99.90;;;;;;5027907;28;20632;-67
2023/02/18 03:30:17;;;;;;;0.57;0.57;;;10.10;99.90;;;;;;5046201;28;21073;-67
2023/02/18 03:32:46;;;;;;;0.47;0.47;;;10.10;99.90;;;;;;5038304;28;21036;-67
2023/02/18 03:35:17;;;;;;;0.57;0.57;;;10.00;99.90;;;;;;5039090;28;20654;-67
2023/02/18 03:37:50;;;;;;;0.43;0.43;;;10.10;99.90;;;;;;5046860;28;20697;-68
2023/02/18 03:40:18;;;;;;;0.60;0.50;;;10.00;99.90;;;;;;5055988;28;20633;-67
2023/02/18 03:42:45;;;;;;;0.70;0.70;;;9.90;99.90;;;;;;5039764;28;20983;-67
2023/02/18 03:45:13;;;;;;;0.43;0.43;;;9.80;99.90;;;;;;5045514;28;20627;-67
2023/02/18 03:47:40;;;;;;;0.53;0.53;;;9.80;99.90;;;;;;5039900;28;20692;-67
2023/02/18 03:50:09;;;;;;;0.63;0.40;;;9.80;99.90;;;;;;5045797;28;20615;-67
2023/02/18 03:52:36;;;;;;;1.07;1.07;;;9.70;99.90;;;;;;5033587;28;20635;-67
2023/02/18 03:55:06;;;;;;;0.87;0.53;;;9.60;99.90;;;;;;5039148;28;20649;-67
2023/02/18 03:57:34;;;;;;;0.60;0.60;;;9.70;99.90;;;;;;5034427;28;20623;-67
2023/02/18 04:00:02;;;;;;;0.93;0.63;;;9.60;99.90;;;;;;5026391;28;20634;-67
2023/02/18 04:02:29;;;;;;;0.63;0.63;;;9.50;99.90;;;;;;5031956;28;20630;-67
2023/02/18 04:04:57;;;;;;;0.40;0.30;;;9.60;99.90;;;;;;5046336;28;21031;-68
2023/02/18 04:07:24;;;;;;;0.60;0.60;;;9.70;99.90;;;;;;5046098;28;20653;-67
2023/02/18 04:09:51;;;;;;;1.17;0.70;;;9.70;99.90;;;;;;5047467;28;20637;-67
2023/02/18 04:12:19;;;;;;;0.83;0.80;;;9.60;99.90;;;;;;5043484;28;20650;-68
2023/02/18 04:14:46;;;;;;;0.97;0.50;;;9.60;99.90;;;;;;5033559;28;20630;-68
2023/02/18 04:17:13;;;;;;;0.70;0.67;;;9.60;99.90;;;;;;5049936;28;20700;-68
2023/02/18 04:19:40;;;;;;;0.83;0.80;;;9.50;99.90;;;;;;5061140;28;20677;-66
2023/02/18 04:22:06;;;;;;;0.60;0.60;;;9.50;99.90;;;;;;5031018;28;20638;-68
2023/02/18 04:24:33;;;;;;;1.23;1.13;;;9.60;99.90;;;;;;5030508;28;21067;-67
2023/02/18 04:27:00;;;;;;;0.80;0.60;;;9.60;99.90;;;;;;5030533;28;20678;-67
2023/02/18 04:29:28;;;;;;;0.37;0.37;;;9.70;99.90;;;;;;5044562;28;20700;-67
2023/02/18 04:31:55;;;;;;;0.70;0.60;;;9.60;99.90;;;;;;5031414;28;20659;-67
2023/02/18 04:34:22;;;;;;;1.43;1.03;;;9.50;99.90;;;;;;5049794;28;21522;-67
2023/02/18 04:36:48;;;;;;;3.53;1.57;;;9.50;99.90;;;;;;5046045;28;20670;-67
2023/02/18 04:39:15;;;;;;;0.67;0.67;;;9.50;99.90;;;;;;5051264;28;20630;-66
2023/02/18 04:41:42;;;;;;;0.50;0.50;;;9.50;99.90;;;;;;5062899;28;20650;-67
2023/02/18 04:44:09;;;;;;;0.97;0.97;;;9.40;99.90;;;;;;5048617;28;20633;-67
2023/02/18 04:46:37;;;;;;;0.63;0.63;;;9.40;99.90;;;;;;5044815;28;20685;-67
2023/02/18 04:49:04;;;;;;;1.27;0.90;;;9.40;99.90;;;;;;5041037;28;20623;-67
2023/02/18 04:51:30;;;;;;;1.13;0.97;;;9.40;99.90;;;;;;5030213;28;20650;-67
2023/02/18 04:53:57;;;;;;;0.57;0.57;;;9.40;99.90;;;;;;5045922;28;20729;-67
2023/02/18 04:56:24;;;;;;;1.80;0.80;;;9.30;99.90;;;;;;5039324;28;20685;-67
2023/02/18 04:58:51;;;;;;;4.63;1.03;;;9.40;99.90;;;;;;5051564;28;20631;-67
2023/02/18 05:01:17;;;;;;;1.13;0.60;;;9.30;99.90;;;;;;5033538;28;20661;-68
2023/02/18 05:03:46;;;;;;;0.50;0.47;;;9.40;99.90;;;;;;5046339;28;20637;-69
2023/02/18 05:06:12;;;;;;;1.73;0.60;;;9.40;99.90;;;;;;5049284;28;20668;-67
2023/02/18 05:08:39;;;;;;;1.53;1.03;;;9.40;99.90;;;;;;5045864;28;20628;-67
2023/02/18 05:11:07;;;;;;;2.10;0.97;;;9.40;99.90;;;;;;5028782;28;20643;-67
2023/02/18 05:13:34;;;;;;;0.87;0.87;;;9.30;99.90;;;;;;5029261;28;20643;-67
2023/02/18 05:16:02;;;;;;;0.73;0.73;;;9.40;99.90;;;;;;5028827;28;20698;-67
2023/02/18 05:18:28;;;;;;;0.53;0.53;;;9.30;99.90;;;;;;5038248;28;20618;-67
2023/02/18 05:20:57;;;;;;;3.70;1.40;;;9.30;99.90;;;;;;5048997;28;20654;-67
2023/02/18 05:23:24;;;;;;;0.50;0.43;;;9.40;99.90;;;;;;5037951;28;20619;-67
2023/02/18 05:25:51;;;;;;;1.73;0.93;;;9.40;99.90;;;;;;5029080;28;20666;-67
2023/02/18 05:28:18;;;;;;;0.77;0.60;;;9.30;99.90;;;;;;5037186;28;20629;-67
2023/02/18 05:30:45;;;;;;;0.40;0.40;;;9.30;99.90;;;;;;5034123;28;20643;-68
2023/02/18 05:33:12;;;;;;;0.67;0.30;;;9.40;99.90;;;;;;5030913;28;20627;-67
2023/02/18 05:35:38;;;;;;;1.33;1.23;;;9.40;99.90;;;;;;5028913;28;20773;-67
2023/02/18 05:38:07;;;;;;;0.50;0.33;;;9.40;99.90;;;;;;5029755;28;20647;-67
2023/02/18 05:40:33;;;;;;;0.67;0.67;;;9.30;99.90;;;;;;5054132;28;20656;-67
2023/02/18 05:43:00;;;;;;;1.13;0.90;;;9.30;99.90;;;;;;5043376;28;21183;-67
2023/02/18 05:45:27;;;;;;;0.70;0.50;;;9.30;99.90;;;;;;5048621;28;21223;-67
2023/02/18 05:47:54;;;;;;;0.80;0.80;;;9.30;99.90;;;;;;5039630;28;20729;-67
2023/02/18 05:50:21;;;;;;;0.33;0.33;;;9.30;99.90;;;;;;5028405;28;20619;-67
2023/02/18 05:52:48;;;;;;;0.97;0.67;;;9.20;99.90;;;;;;5035478;28;20633;-67
2023/02/18 05:55:16;;;;;;;0.57;0.50;;;9.20;99.90;;;;;;5045697;28;20726;-67
2023/02/18 05:57:43;;;;;;;0.73;0.60;;;9.30;99.90;;;;;;5033759;28;20855;-67
2023/02/18 06:00:11;;;;;;;0.80;0.80;;;9.20;99.90;;;;;;5028249;28;20623;-68
2023/02/18 06:02:38;;;;;;;1.30;0.93;;;9.20;99.90;;;;;;5036755;28;20730;-66
2023/02/18 06:05:06;;;;;;;1.43;0.70;;;9.20;99.90;;;;;;5033202;28;20722;-67
2023/02/18 06:07:32;;;;;;;0.87;0.87;;;9.20;99.90;;;;;;5028635;28;20670;-66
2023/02/18 06:09:59;;;;;;;0.53;0.40;;;9.30;99.90;;;;;;5027676;28;21355;-67
2023/02/18 06:12:27;;;;;;;1.27;1.17;;;9.30;99.90;;;;;;5028024;28;20663;-67
2023/02/18 06:14:54;;;;;;;1.03;0.93;;;9.30;99.90;;;;;;5028821;28;20623;-66
2023/02/18 06:17:21;;;;;;;0.60;0.40;;;9.20;99.90;;;;;;5028392;28;20689;-66
2023/02/18 06:19:48;;;;;;;0.40;0.37;;;9.20;99.90;;;;;;5049098;28;21207;-67
2023/02/18 06:22:15;;;;;;;0.40;0.40;;;9.20;99.90;;;;;;5030425;28;20659;-66
2023/02/18 06:24:42;;;;;;;0.97;0.97;;;9.20;99.90;;;;;;5047631;28;20979;-67
2023/02/18 06:27:08;;;;;;;0.90;0.83;;;9.30;99.90;;;;;;5048328;28;20651;-66
2023/02/18 06:29:37;;;;;;;2.93;0.83;;;9.30;99.90;;;;;;5030134;28;20732;-66
2023/02/18 06:32:03;;;;;;;0.40;0.40;;;9.40;99.90;;;;;;5035286;28;21220;-66
2023/02/18 06:34:30;;;;;;;0.90;0.90;;;9.40;99.90;;;;;;5028148;28;20627;-66
2023/02/18 06:36:57;;;;;;;0.50;0.50;;;9.50;99.90;;;;;;5041677;28;21536;-66
2023/02/18 06:39:24;;;;;;;0.80;0.77;;;9.50;99.90;;;;;;5035602;28;20815;-67
2023/02/18 06:41:51;;;;;;;0.80;0.57;;;9.60;99.90;;;;;;5028553;28;20983;-67
2023/02/18 06:44:17;;;;;;;0.90;0.80;;;9.60;99.90;;;;;;5048066;28;20994;-66
2023/02/18 06:46:45;;;;;;;2.03;1.80;;;9.60;99.90;;;;;;5045599;28;20777;-66
2023/02/18 06:49:12;;;;;;;1.37;0.77;;;9.60;99.90;;;;;;5041128;28;20626;-67
2023/02/18 06:51:39;;;;;;;0.50;0.50;;;9.70;99.90;;;;;;5046967;28;20658;-67
2023/02/18 06:54:06;;;;;;;0.40;0.30;;;9.80;99.90;;;;;;5030222;28;20726;-66
2023/02/18 06:56:33;;;;;;;0.80;0.70;;;9.70;99.90;;;;;;5027560;28;20671;-67
2023/02/18 06:59:00;;;;;;;0.83;0.40;;;9.80;99.90;;;;;;5047745;28;20636;-67
2023/02/18 07:01:26;;;;;;;0.63;0.53;;;9.80;99.90;;;;;;5027462;28;21272;-66
2023/02/18 07:03:55;;;;;;;0.60;0.60;;;9.90;99.90;;;;;;5046727;28;20626;-67
2023/02/18 07:06:21;;;;;;;1.27;0.60;;;9.90;99.90;;;;;;5046977;28;20650;-67
2023/02/18 07:08:48;;;;;;;1.77;1.00;;;9.90;99.90;;;;;;5027176;28;20635;-67
2023/02/18 07:11:15;;;;;;;0.80;0.60;;;9.90;99.90;;;;;;5026689;28;20649;-67
2023/02/18 07:13:42;;;;;;;2.23;1.43;;;10.00;99.90;;;;;;5044649;28;20635;-66
2023/02/18 07:16:09;;;;;;;1.90;0.60;;;10.00;99.90;;;;;;5047916;28;20651;-66
2023/02/18 07:18:35;;;;;;;1.10;0.80;;;10.00;99.90;;;;;;5029662;28;20803;-67
2023/02/18 07:21:04;;;;;;;0.43;0.43;;;10.10;99.90;;;;;;5026873;28;20670;-66
2023/02/18 07:23:31;;;;;;;0.80;0.80;;;10.10;99.90;;;;;;5039114;28;20637;-66
2023/02/18 07:26:05;;;;;;;2.53;1.03;;;10.10;99.90;;;;;;5046325;28;20642;-66
2023/02/18 07:28:32;;;;;;;1.37;1.27;;;10.20;99.90;;;;;;5038148;28;20737;-66
2023/02/18 07:30:58;;;;;;;0.50;0.50;;;10.20;99.90;;;;;;5027126;28;20654;-66
2023/02/18 07:33:25;;;;;;;0.70;0.70;;;10.30;99.90;;;;;;5039857;28;21244;-66
2023/02/18 07:35:54;;;;;;;0.93;0.93;;;10.20;99.90;;;;;;5047030;28;21172;-66
2023/02/18 07:38:23;;;;;;;2.30;1.10;;;10.30;99.90;;;;;;5039132;28;20804;-66
2023/02/18 07:40:50;;;;;;;1.43;0.90;;;10.40;99.90;;;;;;5041547;28;21228;-66
2023/02/18 07:43:16;;;;;;;0.87;0.87;;;10.40;99.90;;;;;;5044643;28;20622;-66
2023/02/18 07:45:43;;;;;;;0.40;0.40;;;10.40;99.90;;;;;;5042981;28;20757;-68
2023/02/18 07:48:11;;;;;;;0.70;0.70;;;10.50;99.90;;;;;;5030862;28;20659;-66
2023/02/18 07:50:39;;;;;;;0.40;0.40;;;10.50;99.90;;;;;;5048816;28;20646;-67
2023/02/18 07:53:07;;;;;;;1.10;0.70;;;10.50;99.90;;;;;;5041972;28;20621;-66
2023/02/18 07:55:50;;;;;;;1.07;1.03;;;10.60;99.90;;;;;;5030016;28;20649;-67
2023/02/18 07:58:18;;;;;;;1.50;1.20;;;10.60;99.90;;;;;;5038637;28;20796;-67
2023/02/18 08:00:48;;;;;;;0.70;0.70;;;10.60;99.90;;;;;;5048280;28;20642;-67
2023/02/18 08:03:15;;;;;;;1.70;1.47;;;10.70;99.90;;;;;;5037534;28;20638;-67
2023/02/18 08:05:42;;;;;;;0.57;0.50;;;10.70;99.90;;;;;;5030798;28;20652;-66
2023/02/18 08:08:12;;;;;;;1.47;0.83;;;10.90;99.90;;;;;;5043364;28;21213;-67
2023/02/18 08:10:40;;;;;;;0.97;0.93;;;10.90;99.90;;;;;;5049028;28;21247;-67
2023/02/18 08:13:07;;;;;;;1.43;0.87;;;10.80;99.90;;;;;;5041230;28;21188;-67
2023/02/18 08:15:34;;;;;;;1.17;1.00;;;10.80;99.90;;;;;;5043893;28;20949;-67
2023/02/18 08:18:00;;;;;;;1.13;0.90;;;10.90;99.90;;;;;;5049384;28;21143;-67
2023/02/18 08:20:28;;;;;;;0.70;0.70;;;10.90;99.90;;;;;;5048250;28;20654;-68
2023/02/18 08:22:54;;;;;;;1.10;0.93;;;10.90;99.90;;;;;;5046079;28;20748;-67
2023/02/18 08:25:21;;;;;;;1.00;0.90;;;10.80;99.90;;;;;;5048622;28;20742;-67
2023/02/18 08:27:49;;;;;;;1.10;1.10;;;10.90;99.90;;;;;;5049339;28;20210;-67
2023/02/18 08:30:16;;;;;;;1.00;1.00;;;10.90;99.90;;;;;;5030528;28;21161;-67
2023/02/18 08:32:43;;;;;;;0.40;0.40;;;11.00;99.90;;;;;;5038937;28;20622;-67
2023/02/18 08:35:10;;;;;;;1.13;0.87;;;10.90;99.90;;;;;;5049861;28;20634;-67
2023/02/18 08:37:37;;;;;;;0.80;0.70;;;11.00;99.90;;;;;;5049447;28;20670;-67
2023/02/18 08:40:05;;;;;;;0.77;0.60;;;10.90;99.90;;;;;;5048410;28;20633;-67
2023/02/18 08:42:32;;;;;;;1.13;0.97;;;11.00;99.90;;;;;;5047414;28;20645;-66
2023/02/18 08:45:00;;;;;;;0.60;0.57;;;11.00;99.90;;;;;;5048858;28;20626;-66
2023/02/18 08:47:27;;;;;;;0.73;0.73;;;11.10;99.80;;;;;;5047935;28;20654;-67
2023/02/18 08:49:54;;;;;;;0.90;0.80;;;11.10;99.80;;;;;;5027214;28;20626;-66
2023/02/18 08:52:21;;;;;;;0.60;0.60;;;11.30;99.60;;;;;;5028301;28;21278;-66
2023/02/18 08:54:48;;;;;;;0.50;0.50;;;11.30;99.40;;;;;;5028444;28;20623;-66
2023/02/18 08:57:14;;;;;;;0.77;0.70;;;11.30;99.00;;;;;;5028099;28;20682;-66
2023/02/18 08:59:41;;;;;;;0.70;0.53;;;11.40;98.90;;;;;;5056314;28;20630;-66
2023/02/18 09:02:10;;;;;;;0.63;0.60;;;11.40;98.90;;;;;;5045069;28;20710;-66
2023/02/18 09:04:37;;;;;;;0.80;0.80;;;11.50;98.90;;;;;;5028625;28;20627;-66
2023/02/18 09:07:04;;;;;;;0.97;0.53;;;11.50;98.40;;;;;;5028439;28;20642;-67
2023/02/18 09:09:30;;;;;;;0.70;0.60;;;11.60;98.50;;;;;;5027791;28;21184;-66
2023/02/18 09:11:58;;;;;;;0.80;0.80;;;11.70;98.10;;;;;;5030411;28;20655;-66
2023/02/18 09:14:24;;;;;;;3.70;0.80;;;11.70;98.10;;;;;;5048169;28;20630;-66
2023/02/18 09:16:51;;;;;;;0.83;0.70;;;11.60;98.00;;;;;;5048171;28;20651;-66
2023/02/18 09:19:19;;;;;;;1.43;1.33;;;11.70;97.70;;;;;;5036381;28;20635;-67
2023/02/18 09:21:46;;;;;;;0.67;0.67;;;11.70;97.50;;;;;;5029273;28;20657;-67
2023/02/18 09:24:13;;;;;;;3.17;0.77;;;11.80;97.30;;;;;;5029817;28;20631;-66
2023/02/18 09:26:39;;;;;;;0.67;0.60;;;11.90;97.20;;;;;;5028162;28;20650;-66
2023/02/18 09:29:06;;;;;;;0.97;0.87;;;11.90;97.10;;;;;;5041400;28;21261;-66
2023/02/18 09:31:33;;;;;;;1.33;0.90;;;12.00;97.30;;;;;;5046837;28;20673;-67
2023/02/18 09:34:01;;;;;;;0.40;0.40;;;12.00;97.20;;;;;;5046856;28;20629;-66
2023/02/18 09:36:30;;;;;;;0.50;0.40;;;12.10;97.10;;;;;;4999226;28;1063786;-66
2023/02/18 09:38:57;;;;;;;1.10;1.00;;;12.10;97.00;;;;;;5028757;28;20685;-66
2023/02/18 09:41:32;;;;;;;0.50;0.40;;;12.20;96.80;;;;;;5059632;28;20894;-66
2023/02/18 09:44:01;;;;;;;0.63;0.57;;;12.20;96.90;;;;;;5029053;28;20650;-66
2023/02/18 09:46:32;;;;;;;1.27;1.17;;;12.20;97.20;;;;;;5029291;28;20658;-66
2023/02/18 09:49:02;;;;;;;0.70;0.70;;;12.10;96.90;;;;;;5043911;28;20627;-66
2023/02/18 09:51:30;;;;;;;0.40;0.37;;;12.20;96.70;;;;;;5047609;28;20947;-67
2023/02/18 09:53:57;;;;;;;0.50;0.40;;;12.20;96.50;;;;;;5047384;28;20633;-66
2023/02/18 09:56:30;;;;;;;0.30;0.20;;;12.20;96.50;;;;;;5048957;28;20642;-66
2023/02/18 09:58:59;;;;;;;0.63;0.40;;;12.20;96.60;;;;;;5035761;28;20671;-66
2023/02/18 10:01:31;;;;;;;0.43;0.43;;;12.20;96.60;;;;;;5031985;28;20658;-66
2023/02/18 10:04:00;;;;;;;1.17;1.03;;;12.20;96.40;;;;;;5048690;28;20622;-66
2023/02/18 10:06:32;;;;;;;0.80;0.57;;;12.20;96.50;;;;;;5038642;28;20662;-66
2023/02/18 10:09:03;;;;;;;0.50;0.50;;;12.20;96.50;;;;;;5027570;28;20634;-66
2023/02/18 10:11:32;;;;;;;0.50;0.50;;;12.30;96.30;;;;;;5031946;28;21151;-67
2023/02/18 10:14:01;;;;;;;0.77;0.77;;;12.30;96.10;;;;;;5045983;28;20632;-66
2023/02/18 10:16:28;;;;;;;0.73;0.70;;;12.30;96.20;;;;;;5048540;28;20712;-67
2023/02/18 10:18:58;;;;;;;0.40;0.40;;;12.30;96.20;;;;;;5034880;28;21026;-66
2023/02/18 10:21:26;;;;;;;0.37;0.37;;;12.30;96.00;;;;;;5028364;28;21106;-66
2023/02/18 10:24:00;;;;;;;1.00;0.57;;;12.40;96.10;;;;;;5041152;28;20959;-66
2023/02/18 10:26:28;;;;;;;0.40;0.40;;;12.40;96.20;;;;;;5047288;28;20749;-66
2023/02/18 10:28:56;;;;;;;0.40;0.30;;;12.40;95.90;;;;;;5035186;28;20987;-66
2023/02/18 10:31:28;;;;;;;0.73;0.73;;;12.40;95.60;;;;;;5028153;28;20635;-66
2023/02/18 10:34:03;;;;;;;0.40;0.30;;;12.40;95.60;;;;;;5047838;28;20634;-66
2023/02/18 10:36:36;;;;;;;1.03;0.80;;;12.30;95.70;;;;;;5047430;28;20662;-66
2023/02/18 10:39:20;;;;;;;0.30;0.20;;;12.40;95.70;;;;;;5039004;28;20771;-67
2023/02/18 10:41:57;;;;;;;0.73;0.53;;;12.50;95.70;;;;;;5029424;28;20647;-66
2023/02/18 10:44:32;;;;;;;0.50;0.30;;;12.50;95.30;;;;;;5035578;28;20630;-66
2023/02/18 10:47:14;;;;;;;0.80;0.80;;;12.50;95.30;;;;;;5028911;28;20654;-66
2023/02/18 10:49:57;;;;;;;0.40;0.40;;;12.50;95.50;;;;;;5026776;28;20618;-66
2023/02/18 10:52:26;;;;;;;1.00;0.53;;;12.60;95.10;;;;;;5026363;28;20675;-66
2023/02/18 10:55:00;;;;;;;0.60;0.60;;;12.70;95.20;;;;;;5045367;28;21241;-67
2023/02/18 10:57:28;;;;;;;0.40;0.40;;;12.70;95.50;;;;;;5047008;28;20665;-66
2023/02/18 10:59:58;;;;;;;0.60;0.57;;;12.70;95.10;;;;;;5027262;28;20638;-66
2023/02/18 11:02:29;;;;;;;0.90;0.90;;;12.70;95.10;;;;;;5028220;28;20647;-66
2023/02/18 11:04:58;;;;;;;0.40;0.40;;;12.80;94.90;;;;;;5046981;28;20627;-66
2023/02/18 11:07:29;;;;;;;0.77;0.40;;;12.80;94.60;;;;;;5046596;28;21231;-66
2023/02/18 11:09:59;;;;;;;0.50;0.50;;;12.70;94.40;;;;;;5046403;28;20633;-67
2023/02/18 11:12:30;;;;;;;0.60;0.60;;;12.80;94.60;;;;;;5039707;28;20654;-67
2023/02/18 11:15:16;;;;;;;0.40;0.30;;;12.90;94.80;;;;;;5027517;28;20665;-66
2023/02/18 11:17:45;;;;;;;0.80;0.47;;;12.90;94.70;;;;;;5035157;28;20646;-68
2023/02/18 11:20:24;;;;;;;0.40;0.30;;;12.90;94.50;;;;;;5046426;28;20633;-66
2023/02/18 11:22:51;;;;;;;0.60;0.60;;;13.00;94.30;;;;;;5040833;28;20650;-66
2023/02/18 11:25:24;;;;;;;0.60;0.40;;;12.90;94.20;;;;;;5027336;28;20632;-67
2023/02/18 11:27:55;;;;;;;0.40;0.40;;;12.90;94.00;;;;;;5029839;28;20630;-66
2023/02/18 11:30:24;;;;;;;0.50;0.50;;;12.90;94.40;;;;;;5044738;28;20745;-67
2023/02/18 11:32:56;;;;;;;0.60;0.47;;;13.00;94.50;;;;;;5029956;28;20197;-66
2023/02/18 11:35:25;;;;;;;2.50;0.60;;;13.00;93.90;;;;;;5046578;28;20634;-67
2023/02/18 11:37:53;;;;;;;0.70;0.70;;;13.00;94.10;;;;;;5046537;28;21243;-67
2023/02/18 11:40:24;;;;;;;0.80;0.60;;;13.00;93.80;;;;;;5057329;28;20629;-66
2023/02/18 11:42:51;;;;;;;0.50;0.40;;;13.00;93.60;;;;;;5038410;28;20987;-67
2023/02/18 11:45:29;;;;;;;0.80;0.80;;;13.00;93.70;;;;;;5030201;28;20734;-66
2023/02/18 11:48:00;;;;;;;0.70;0.70;;;12.90;93.60;;;;;;5035655;28;21006;-66
2023/02/18 11:50:31;;;;;;;0.60;0.60;;;13.00;93.40;;;;;;5038904;28;20670;-66
2023/02/18 11:52:58;;;;;;;1.00;0.90;;;13.10;93.60;;;;;;5033715;28;20710;-67
2023/02/18 11:55:29;;;;;;;0.47;0.47;;;13.20;93.90;;;;;;5046129;28;20650;-67
2023/02/18 11:57:58;;;;;;;2.93;0.90;;;13.20;93.70;;;;;;5030004;28;20723;-66
2023/02/18 12:00:37;;;;;;;0.67;0.30;;;13.20;93.20;;;;;;5046388;28;20650;-66
2023/02/18 12:03:13;;;;;;;0.73;0.73;;;13.20;93.10;;;;;;5042262;28;20636;-66
2023/02/18 12:05:41;;;;;;;0.57;0.57;;;13.30;93.10;;;;;;5046509;28;20656;-67
2023/02/18 12:08:17;;;;;;;0.40;0.40;;;13.40;92.50;;;;;;5034656;28;20635;-67
2023/02/18 12:10:48;;;;;;;0.40;0.37;;;13.40;92.50;;;;;;5026823;28;21014;-67
2023/02/18 12:13:24;;;;;;;1.07;0.40;;;13.50;92.10;;;;;;5034443;28;20630;-66
2023/02/18 12:16:00;;;;;;;0.60;0.50;;;13.50;92.20;;;;;;5026777;28;20655;-66
2023/02/18 12:18:54;;;;;;;0.60;0.60;;;13.50;91.90;;;;;;5036493;28;20862;-66
2023/02/18 12:21:41;;;;;;;0.70;0.67;;;13.60;92.20;;;;;;5046094;28;20664;-66
2023/02/18 12:24:26;;;;;;;0.63;0.63;;;13.60;91.80;;;;;;5030015;28;21188;-67
2023/02/18 12:27:01;;;;;;;0.40;0.40;;;13.70;91.70;;;;;;5032835;28;20647;-66
2023/02/18 12:29:42;;;;;;;0.60;0.60;;;13.60;92.00;;;;;;5030925;28;20624;-66
2023/02/18 12:32:28;;;;;;;0.40;0.27;;;13.70;91.80;;;;;;5029975;28;20999;-66
2023/02/18 12:35:15;;;;;;;0.80;0.53;;;13.80;91.80;;;;;;5044098;28;20649;-66
2023/02/18 12:38:09;;;;;;;0.70;0.33;;;13.70;91.60;;;;;;5029378;28;20643;-66
2023/02/18 12:41:02;;;;;;;0.70;0.50;;;13.70;91.50;;;;;;5052401;28;21244;-66
2023/02/18 12:43:43;;;;;;;1.43;0.60;;;13.80;90.70;;;;;;5040413;28;21149;-66
2023/02/18 12:46:31;;;;;;;0.60;0.50;;;13.70;90.50;;;;;;5029264;28;20671;-66
2023/02/18 12:49:15;;;;;;;1.10;0.70;;;13.60;90.50;;;;;;5039428;28;20983;-66
2023/02/18 12:51:58;;;;;;;2.10;1.10;;;13.60;90.10;;;;;;5030456;28;21262;-66
2023/02/18 12:54:40;;;;;;;0.93;0.93;;;13.60;90.40;;;;;;5030298;28;20674;-66
2023/02/18 12:57:33;;;;;;;0.80;0.80;;;13.60;90.20;;;;;;5029718;28;20661;-66
2023/02/18 13:00:34;;;;;;;0.83;0.73;;;13.60;90.50;;;;;;5028905;28;20761;-66
2023/02/18 13:03:23;;;;;;;1.17;1.10;;;13.50;90.20;;;;;;5040646;28;21196;-65
2023/02/18 13:05:58;;;;;;;1.50;1.00;;;13.50;90.30;;;;;;5032050;28;20653;-66
2023/02/18 13:08:38;;;;;;;1.90;1.20;;;13.60;90.30;;;;;;5037866;28;21227;-66